Portada
METAR-TAF:

METAR-TAF

Aeropuertos :

Aeropuerto Internacional Hato

Curazao, Antillas Neerlandesas

latitud: 12-12N, longitud: 068-58W, altitud: 9 m

Observación

El informe se hizo hace 23 minutos, a las 11:00 UTC
Viento 12 kt del este
Temperatura 26°C
Humedad 74%
Presión 1013 hPa
Visibilidad 10 km o más
Escasas nubes a una altura de 1800 ft

METAR: TNCC 201100Z 10012KT 9999 FEW018 26/21 Q1013 NOSIG

Hora: 07:23 (11:23 UTC)

Pronóstico

El informe se hizo hace 7 horas y 23 minutos, a las 04:00 UTC
Pronóstico válido del 20 a las 06 UTC al 21 a las 06 UTC
Viento 10 kt del este-sureste
Visibilidad 10 km o más
Nubes dispersas a una altura de 1800 ft

TAF: TNCC 200400Z 2006/2106 11010KT 9999 SCT018

Observaciones y pronósticos meteorológicos de más de 4000 aeropuertos (mensajes METAR y TAF).

Los puntos amarillos y rojos representan las estaciones disponibles.

Ponga el ratón en el punto deseado para ver el nombre de la estación.

Haga clic para ver las observaciones y los pronósticos meteorológicos.

Para cambiar el mapa : haga clic en los botones verdes con una cruz de color negro para hacer un zoom, en el botón verde con un guión para alejar o en las flechas verdes para mapas adyacentes.


METAR-TAF: